Pagedale, Missouri
Current Conditions -  °F | °C
As of 10:51 PM on Saturday 25 Oct 2014 (Local Time) from KSTL Reporting Station
Clear Clear  
Wind Chill: 61°   Ceiling: Unl
Heat Index: 61°   Visibility: 10mi
Dew Point: 51°   Wind: 0mph
Humidity: 70%   Direction: NA
Pressure: 30.03"   Gusts: NA
Location:  38.6807°N, 90.3068°W
Report Text: KSTL 260351Z 00000KT 10SM CLR 16/11 A3003 RMK AO2 SLP162 T01610106
Loading
Personal Weather Stations






























Interactive Weather Map
Tropical Storm Tracking
New forecast layout! Learn more

10-Day Weather Forecast

Advertisements
Track Severe Weather on mobile